sensor_id;sensor_type;location;lat;lon;timestamp;P1;durP1;ratioP1;P2;durP2;ratioP2
25263;SDS011;13211;51.796;5.808;2022-07-19T00:03:33;10.90;;;5.03;;
25263;SDS011;13211;51.796;5.808;2022-07-19T00:06:02;11.95;;;4.32;;
25263;SDS011;13211;51.796;5.808;2022-07-19T00:08:29;13.35;;;4.68;;
25263;SDS011;13211;51.796;5.808;2022-07-19T00:10:59;16.40;;;4.60;;
25263;SDS011;13211;51.796;5.808;2022-07-19T00:13:27;11.68;;;4.55;;
25263;SDS011;13211;51.796;5.808;2022-07-19T00:15:55;16.60;;;5.38;;
25263;SDS011;13211;51.796;5.808;2022-07-19T00:18:24;15.90;;;5.10;;
25263;SDS011;13211;51.796;5.808;2022-07-19T00:20:51;15.88;;;4.68;;
25263;SDS011;13211;51.796;5.808;2022-07-19T00:23:23;9.10;;;4.22;;
25263;SDS011;13211;51.796;5.808;2022-07-19T00:25:50;10.00;;;4.70;;
25263;SDS011;13211;51.796;5.808;2022-07-19T00:28:18;17.55;;;4.30;;
25263;SDS011;13211;51.796;5.808;2022-07-19T00:30:45;14.30;;;4.45;;
25263;SDS011;13211;51.796;5.808;2022-07-19T00:33:16;10.15;;;4.55;;
25263;SDS011;13211;51.796;5.808;2022-07-19T00:35:46;17.02;;;4.93;;
25263;SDS011;13211;51.796;5.808;2022-07-19T00:38:15;14.13;;;4.95;;
25263;SDS011;13211;51.796;5.808;2022-07-19T00:40:42;19.65;;;4.70;;
25263;SDS011;13211;51.796;5.808;2022-07-19T00:43:13;12.32;;;4.35;;
25263;SDS011;13211;51.796;5.808;2022-07-19T00:45:42;10.07;;;4.27;;
25263;SDS011;13211;51.796;5.808;2022-07-19T00:48:12;15.15;;;4.90;;
25263;SDS011;13211;51.796;5.808;2022-07-19T00:50:40;11.50;;;4.65;;
25263;SDS011;13211;51.796;5.808;2022-07-19T00:53:08;12.65;;;4.88;;
25263;SDS011;13211;51.796;5.808;2022-07-19T00:55:37;15.32;;;5.30;;
25263;SDS011;13211;51.796;5.808;2022-07-19T00:58:08;16.17;;;5.00;;
25263;SDS011;13211;51.796;5.808;2022-07-19T01:00:37;11.27;;;4.65;;
25263;SDS011;13211;51.796;5.808;2022-07-19T01:03:06;11.23;;;4.57;;
25263;SDS011;13211;51.796;5.808;2022-07-19T01:05:38;12.20;;;5.05;;
25263;SDS011;13211;51.796;5.808;2022-07-19T01:08:06;11.23;;;4.30;;
25263;SDS011;13211;51.796;5.808;2022-07-19T01:10:33;12.05;;;4.55;;
25263;SDS011;13211;51.796;5.808;2022-07-19T01:13:02;9.25;;;4.55;;
25263;SDS011;13211;51.796;5.808;2022-07-19T01:15:30;10.02;;;4.50;;
25263;SDS011;13211;51.796;5.808;2022-07-19T01:17:57;9.38;;;4.85;;
25263;SDS011;13211;51.796;5.808;2022-07-19T01:20:26;13.52;;;4.85;;
25263;SDS011;13211;51.796;5.808;2022-07-19T01:22:57;18.95;;;4.60;;
25263;SDS011;13211;51.796;5.808;2022-07-19T01:25:34;14.60;;;4.93;;
25263;SDS011;13211;51.796;5.808;2022-07-19T01:28:04;14.18;;;4.93;;
25263;SDS011;13211;51.796;5.808;2022-07-19T01:30:33;10.73;;;4.63;;
25263;SDS011;13211;51.796;5.808;2022-07-19T01:33:02;8.43;;;4.93;;
25263;SDS011;13211;51.796;5.808;2022-07-19T01:35:30;8.38;;;4.45;;
25263;SDS011;13211;51.796;5.808;2022-07-19T01:37:58;10.15;;;4.15;;
25263;SDS011;13211;51.796;5.808;2022-07-19T01:40:26;12.40;;;4.40;;
25263;SDS011;13211;51.796;5.808;2022-07-19T01:42:54;15.63;;;4.60;;
25263;SDS011;13211;51.796;5.808;2022-07-19T01:45:21;14.68;;;4.47;;
25263;SDS011;13211;51.796;5.808;2022-07-19T01:47:49;9.05;;;4.70;;
25263;SDS011;13211;51.796;5.808;2022-07-19T01:50:18;7.53;;;4.65;;
25263;SDS011;13211;51.796;5.808;2022-07-19T01:52:45;16.05;;;4.47;;
25263;SDS011;13211;51.796;5.808;2022-07-19T01:55:18;17.83;;;4.93;;
25263;SDS011;13211;51.796;5.808;2022-07-19T01:57:47;12.18;;;4.40;;
25263;SDS011;13211;51.796;5.808;2022-07-19T02:00:18;12.07;;;4.40;;
25263;SDS011;13211;51.796;5.808;2022-07-19T02:02:46;14.93;;;4.15;;
25263;SDS011;13211;51.796;5.808;2022-07-19T02:05:14;11.27;;;4.03;;
25263;SDS011;13211;51.796;5.808;2022-07-19T02:07:45;6.47;;;4.13;;
25263;SDS011;13211;51.796;5.808;2022-07-19T02:10:13;10.27;;;4.35;;
25263;SDS011;13211;51.796;5.808;2022-07-19T02:12:41;7.82;;;4.45;;
25263;SDS011;13211;51.796;5.808;2022-07-19T02:15:10;11.95;;;4.18;;
25263;SDS011;13211;51.796;5.808;2022-07-19T02:17:37;7.68;;;4.15;;
25263;SDS011;13211;51.796;5.808;2022-07-19T02:20:05;11.18;;;4.03;;
25263;SDS011;13211;51.796;5.808;2022-07-19T02:22:33;10.10;;;4.65;;
25263;SDS011;13211;51.796;5.808;2022-07-19T02:25:01;13.98;;;4.15;;
25263;SDS011;13211;51.796;5.808;2022-07-19T02:27:29;6.20;;;3.90;;
25263;SDS011;13211;51.796;5.808;2022-07-19T02:29:56;12.77;;;4.47;;
25263;SDS011;13211;51.796;5.808;2022-07-19T02:32:24;12.10;;;4.95;;
25263;SDS011;13211;51.796;5.808;2022-07-19T02:34:52;10.30;;;4.88;;
25263;SDS011;13211;51.796;5.808;2022-07-19T02:37:19;8.68;;;4.40;;
25263;SDS011;13211;51.796;5.808;2022-07-19T02:39:47;10.32;;;4.07;;
25263;SDS011;13211;51.796;5.808;2022-07-19T02:42:15;10.38;;;4.68;;
25263;SDS011;13211;51.796;5.808;2022-07-19T02:44:42;10.95;;;4.30;;
25263;SDS011;13211;51.796;5.808;2022-07-19T02:47:11;11.93;;;3.95;;
25263;SDS011;13211;51.796;5.808;2022-07-19T02:49:38;8.18;;;4.30;;
25263;SDS011;13211;51.796;5.808;2022-07-19T02:52:13;8.57;;;4.53;;
25263;SDS011;13211;51.796;5.808;2022-07-19T02:54:42;9.52;;;4.15;;
25263;SDS011;13211;51.796;5.808;2022-07-19T02:57:13;7.50;;;4.28;;
25263;SDS011;13211;51.796;5.808;2022-07-19T02:59:42;9.52;;;4.28;;
25263;SDS011;13211;51.796;5.808;2022-07-19T03:02:11;7.65;;;3.90;;
25263;SDS011;13211;51.796;5.808;2022-07-19T03:04:38;8.30;;;4.03;;
25263;SDS011;13211;51.796;5.808;2022-07-19T03:07:05;9.50;;;4.32;;
25263;SDS011;13211;51.796;5.808;2022-07-19T03:09:33;7.53;;;4.22;;
25263;SDS011;13211;51.796;5.808;2022-07-19T03:12:01;6.57;;;4.15;;
25263;SDS011;13211;51.796;5.808;2022-07-19T03:14:28;9.23;;;4.50;;
25263;SDS011;13211;51.796;5.808;2022-07-19T03:16:55;10.32;;;4.70;;
25263;SDS011;13211;51.796;5.808;2022-07-19T03:19:23;9.32;;;4.22;;
25263;SDS011;13211;51.796;5.808;2022-07-19T03:21:53;7.82;;;4.45;;
25263;SDS011;13211;51.796;5.808;2022-07-19T03:24:21;10.25;;;4.07;;
25263;SDS011;13211;51.796;5.808;2022-07-19T03:26:49;11.73;;;4.15;;
25263;SDS011;13211;51.796;5.808;2022-07-19T03:29:16;11.27;;;4.60;;
25263;SDS011;13211;51.796;5.808;2022-07-19T03:31:47;14.40;;;4.25;;
25263;SDS011;13211;51.796;5.808;2022-07-19T03:34:15;10.27;;;4.30;;
25263;SDS011;13211;51.796;5.808;2022-07-19T03:36:42;9.05;;;4.20;;
25263;SDS011;13211;51.796;5.808;2022-07-19T03:39:12;8.75;;;4.63;;
25263;SDS011;13211;51.796;5.808;2022-07-19T03:41:41;9.40;;;4.57;;
25263;SDS011;13211;51.796;5.808;2022-07-19T03:44:09;6.78;;;3.85;;
25263;SDS011;13211;51.796;5.808;2022-07-19T03:46:36;5.97;;;3.80;;
25263;SDS011;13211;51.796;5.808;2022-07-19T03:49:04;7.38;;;3.60;;
25263;SDS011;13211;51.796;5.808;2022-07-19T03:51:32;16.23;;;4.35;;
25263;SDS011;13211;51.796;5.808;2022-07-19T03:54:00;6.40;;;4.20;;
25263;SDS011;13211;51.796;5.808;2022-07-19T03:56:28;14.40;;;4.65;;
25263;SDS011;13211;51.796;5.808;2022-07-19T03:58:56;10.23;;;4.40;;
25263;SDS011;13211;51.796;5.808;2022-07-19T04:01:24;9.38;;;4.35;;
25263;SDS011;13211;51.796;5.808;2022-07-19T04:03:52;9.68;;;4.13;;
25263;SDS011;13211;51.796;5.808;2022-07-19T04:06:19;8.13;;;4.25;;
25263;SDS011;13211;51.796;5.808;2022-07-19T04:08:47;7.97;;;4.50;;
25263;SDS011;13211;51.796;5.808;2022-07-19T04:11:15;8.13;;;4.15;;
25263;SDS011;13211;51.796;5.808;2022-07-19T04:13:43;12.73;;;4.25;;
25263;SDS011;13211;51.796;5.808;2022-07-19T04:16:10;9.40;;;4.28;;
25263;SDS011;13211;51.796;5.808;2022-07-19T04:18:39;10.43;;;4.20;;
25263;SDS011;13211;51.796;5.808;2022-07-19T04:21:06;14.68;;;4.40;;
25263;SDS011;13211;51.796;5.808;2022-07-19T04:23:33;7.10;;;4.10;;
25263;SDS011;13211;51.796;5.808;2022-07-19T04:26:01;8.50;;;3.83;;
25263;SDS011;13211;51.796;5.808;2022-07-19T04:28:29;7.68;;;4.30;;
25263;SDS011;13211;51.796;5.808;2022-07-19T04:30:57;7.88;;;4.22;;
25263;SDS011;13211;51.796;5.808;2022-07-19T04:33:25;10.20;;;4.95;;
25263;SDS011;13211;51.796;5.808;2022-07-19T04:35:52;9.10;;;4.60;;
25263;SDS011;13211;51.796;5.808;2022-07-19T04:38:28;11.82;;;4.90;;
25263;SDS011;13211;51.796;5.808;2022-07-19T04:40:56;8.65;;;4.40;;
25263;SDS011;13211;51.796;5.808;2022-07-19T04:43:25;9.85;;;4.93;;
25263;SDS011;13211;51.796;5.808;2022-07-19T04:45:53;9.02;;;5.43;;
25263;SDS011;13211;51.796;5.808;2022-07-19T04:48:21;11.23;;;4.93;;
25263;SDS011;13211;51.796;5.808;2022-07-19T04:50:49;10.02;;;4.65;;
25263;SDS011;13211;51.796;5.808;2022-07-19T04:53:19;10.25;;;5.10;;
25263;SDS011;13211;51.796;5.808;2022-07-19T04:55:47;11.00;;;5.05;;
25263;SDS011;13211;51.796;5.808;2022-07-19T04:58:16;13.93;;;4.88;;
25263;SDS011;13211;51.796;5.808;2022-07-19T05:00:43;7.75;;;4.38;;
25263;SDS011;13211;51.796;5.808;2022-07-19T05:03:11;7.90;;;4.45;;
25263;SDS011;13211;51.796;5.808;2022-07-19T05:05:40;12.65;;;4.35;;
25263;SDS011;13211;51.796;5.808;2022-07-19T05:08:09;7.40;;;4.53;;
25263;SDS011;13211;51.796;5.808;2022-07-19T05:10:37;8.38;;;4.57;;
25263;SDS011;13211;51.796;5.808;2022-07-19T05:13:08;7.93;;;4.50;;
25263;SDS011;13211;51.796;5.808;2022-07-19T05:15:36;11.60;;;4.13;;
25263;SDS011;13211;51.796;5.808;2022-07-19T05:18:04;7.97;;;4.22;;
25263;SDS011;13211;51.796;5.808;2022-07-19T05:20:32;8.27;;;4.00;;
25263;SDS011;13211;51.796;5.808;2022-07-19T05:22:59;7.47;;;4.03;;
25263;SDS011;13211;51.796;5.808;2022-07-19T05:25:27;7.35;;;3.95;;
25263;SDS011;13211;51.796;5.808;2022-07-19T05:27:54;9.23;;;4.32;;
25263;SDS011;13211;51.796;5.808;2022-07-19T05:30:23;10.85;;;4.20;;
25263;SDS011;13211;51.796;5.808;2022-07-19T05:32:51;12.85;;;4.43;;
25263;SDS011;13211;51.796;5.808;2022-07-19T05:35:19;9.07;;;5.07;;
25263;SDS011;13211;51.796;5.808;2022-07-19T05:37:46;12.93;;;8.07;;
25263;SDS011;13211;51.796;5.808;2022-07-19T05:40:16;12.57;;;5.67;;
25263;SDS011;13211;51.796;5.808;2022-07-19T05:42:45;13.15;;;7.70;;
25263;SDS011;13211;51.796;5.808;2022-07-19T05:45:12;10.57;;;6.10;;
25263;SDS011;13211;51.796;5.808;2022-07-19T05:47:40;14.38;;;6.60;;
25263;SDS011;13211;51.796;5.808;2022-07-19T05:50:08;11.95;;;5.18;;
25263;SDS011;13211;51.796;5.808;2022-07-19T05:52:35;7.32;;;4.60;;
25263;SDS011;13211;51.796;5.808;2022-07-19T05:55:04;8.88;;;5.18;;
25263;SDS011;13211;51.796;5.808;2022-07-19T05:57:32;11.60;;;5.50;;
25263;SDS011;13211;51.796;5.808;2022-07-19T06:00:03;13.68;;;4.60;;
25263;SDS011;13211;51.796;5.808;2022-07-19T06:02:38;19.17;;;7.10;;
25263;SDS011;13211;51.796;5.808;2022-07-19T06:05:06;17.77;;;6.95;;
25263;SDS011;13211;51.796;5.808;2022-07-19T06:07:34;14.43;;;5.68;;
25263;SDS011;13211;51.796;5.808;2022-07-19T06:10:03;8.88;;;4.20;;
25263;SDS011;13211;51.796;5.808;2022-07-19T06:12:31;9.93;;;4.72;;
25263;SDS011;13211;51.796;5.808;2022-07-19T06:14:58;13.13;;;5.15;;
25263;SDS011;13211;51.796;5.808;2022-07-19T06:17:26;20.80;;;4.38;;
25263;SDS011;13211;51.796;5.808;2022-07-19T06:19:54;11.05;;;4.50;;
25263;SDS011;13211;51.796;5.808;2022-07-19T06:22:21;10.93;;;4.43;;
25263;SDS011;13211;51.796;5.808;2022-07-19T06:24:52;16.02;;;4.88;;
25263;SDS011;13211;51.796;5.808;2022-07-19T06:27:20;12.05;;;5.70;;
25263;SDS011;13211;51.796;5.808;2022-07-19T06:29:47;8.18;;;4.72;;
25263;SDS011;13211;51.796;5.808;2022-07-19T06:32:16;13.60;;;4.38;;
25263;SDS011;13211;51.796;5.808;2022-07-19T06:34:45;12.40;;;5.03;;
25263;SDS011;13211;51.796;5.808;2022-07-19T06:37:13;16.08;;;4.50;;
25263;SDS011;13211;51.796;5.808;2022-07-19T06:39:42;10.93;;;4.25;;
25263;SDS011;13211;51.796;5.808;2022-07-19T06:42:12;9.65;;;4.15;;
25263;SDS011;13211;51.796;5.808;2022-07-19T06:44:43;6.78;;;2.90;;
25263;SDS011;13211;51.796;5.808;2022-07-19T06:47:12;14.88;;;4.60;;
25263;SDS011;13211;51.796;5.808;2022-07-19T06:49:41;9.60;;;3.13;;
25263;SDS011;13211;51.796;5.808;2022-07-19T06:52:10;7.20;;;3.20;;
25263;SDS011;13211;51.796;5.808;2022-07-19T06:54:40;9.43;;;3.50;;
25263;SDS011;13211;51.796;5.808;2022-07-19T06:57:08;12.45;;;2.80;;
25263;SDS011;13211;51.796;5.808;2022-07-19T06:59:38;6.32;;;2.50;;
25263;SDS011;13211;51.796;5.808;2022-07-19T07:02:06;9.95;;;3.38;;
25263;SDS011;13211;51.796;5.808;2022-07-19T07:04:34;14.25;;;3.75;;
25263;SDS011;13211;51.796;5.808;2022-07-19T07:07:13;12.43;;;3.75;;
25263;SDS011;13211;51.796;5.808;2022-07-19T07:09:41;12.25;;;3.35;;
25263;SDS011;13211;51.796;5.808;2022-07-19T07:12:11;14.00;;;3.20;;
25263;SDS011;13211;51.796;5.808;2022-07-19T07:14:38;10.65;;;3.58;;
25263;SDS011;13211;51.796;5.808;2022-07-19T07:17:06;14.45;;;3.20;;
25263;SDS011;13211;51.796;5.808;2022-07-19T07:19:34;24.58;;;3.60;;
25263;SDS011;13211;51.796;5.808;2022-07-19T07:22:02;14.38;;;3.72;;
25263;SDS011;13211;51.796;5.808;2022-07-19T07:24:30;9.77;;;3.47;;
25263;SDS011;13211;51.796;5.808;2022-07-19T07:27:00;15.30;;;3.20;;
25263;SDS011;13211;51.796;5.808;2022-07-19T07:29:27;7.22;;;3.22;;
25263;SDS011;13211;51.796;5.808;2022-07-19T07:31:55;16.48;;;3.55;;
25263;SDS011;13211;51.796;5.808;2022-07-19T07:34:25;14.30;;;3.60;;
25263;SDS011;13211;51.796;5.808;2022-07-19T07:36:57;10.05;;;3.65;;
25263;SDS011;13211;51.796;5.808;2022-07-19T07:39:25;12.02;;;3.35;;
25263;SDS011;13211;51.796;5.808;2022-07-19T07:41:53;8.43;;;3.35;;
25263;SDS011;13211;51.796;5.808;2022-07-19T07:44:38;12.38;;;3.85;;
25263;SDS011;13211;51.796;5.808;2022-07-19T07:47:07;13.13;;;3.53;;
25263;SDS011;13211;51.796;5.808;2022-07-19T07:49:35;10.85;;;3.30;;
25263;SDS011;13211;51.796;5.808;2022-07-19T07:52:04;10.07;;;3.05;;
25263;SDS011;13211;51.796;5.808;2022-07-19T07:54:37;10.15;;;3.05;;
25263;SDS011;13211;51.796;5.808;2022-07-19T07:57:25;11.40;;;3.67;;
25263;SDS011;13211;51.796;5.808;2022-07-19T07:59:53;17.13;;;3.33;;
25263;SDS011;13211;51.796;5.808;2022-07-19T08:02:20;27.08;;;3.75;;
25263;SDS011;13211;51.796;5.808;2022-07-19T08:04:48;17.52;;;3.65;;
25263;SDS011;13211;51.796;5.808;2022-07-19T08:07:16;10.07;;;3.20;;
25263;SDS011;13211;51.796;5.808;2022-07-19T08:09:43;10.43;;;3.20;;
25263;SDS011;13211;51.796;5.808;2022-07-19T08:12:11;10.38;;;2.88;;
25263;SDS011;13211;51.796;5.808;2022-07-19T08:14:39;20.48;;;3.20;;
25263;SDS011;13211;51.796;5.808;2022-07-19T08:17:08;8.93;;;3.28;;
25263;SDS011;13211;51.796;5.808;2022-07-19T08:19:36;9.40;;;3.20;;
25263;SDS011;13211;51.796;5.808;2022-07-19T08:22:04;11.93;;;3.03;;
25263;SDS011;13211;51.796;5.808;2022-07-19T08:24:31;12.95;;;3.00;;
25263;SDS011;13211;51.796;5.808;2022-07-19T08:26:59;16.77;;;3.63;;
25263;SDS011;13211;51.796;5.808;2022-07-19T08:29:27;14.20;;;3.50;;
25263;SDS011;13211;51.796;5.808;2022-07-19T08:31:57;17.73;;;3.40;;
25263;SDS011;13211;51.796;5.808;2022-07-19T08:34:25;10.57;;;3.08;;
25263;SDS011;13211;51.796;5.808;2022-07-19T08:36:55;16.45;;;3.20;;
25263;SDS011;13211;51.796;5.808;2022-07-19T08:39:23;10.02;;;3.42;;
25263;SDS011;13211;51.796;5.808;2022-07-19T08:41:51;19.13;;;4.10;;
25263;SDS011;13211;51.796;5.808;2022-07-19T08:44:19;14.07;;;3.40;;
25263;SDS011;13211;51.796;5.808;2022-07-19T08:46:48;7.73;;;3.40;;
25263;SDS011;13211;51.796;5.808;2022-07-19T08:49:17;16.88;;;3.35;;
25263;SDS011;13211;51.796;5.808;2022-07-19T08:51:46;9.75;;;2.95;;
25263;SDS011;13211;51.796;5.808;2022-07-19T08:54:15;11.02;;;2.78;;
25263;SDS011;13211;51.796;5.808;2022-07-19T08:56:42;8.60;;;2.85;;
25263;SDS011;13211;51.796;5.808;2022-07-19T08:59:28;6.00;;;2.47;;
25263;SDS011;13211;51.796;5.808;2022-07-19T09:01:57;6.88;;;2.47;;
25263;SDS011;13211;51.796;5.808;2022-07-19T09:04:26;5.32;;;2.38;;
25263;SDS011;13211;51.796;5.808;2022-07-19T09:06:57;10.65;;;2.83;;
25263;SDS011;13211;51.796;5.808;2022-07-19T09:09:26;10.07;;;2.33;;
25263;SDS011;13211;51.796;5.808;2022-07-19T09:11:56;12.02;;;3.25;;
25263;SDS011;13211;51.796;5.808;2022-07-19T09:14:27;9.90;;;2.70;;
25263;SDS011;13211;51.796;5.808;2022-07-19T09:17:04;5.13;;;2.50;;
25263;SDS011;13211;51.796;5.808;2022-07-19T09:19:47;8.35;;;2.63;;
25263;SDS011;13211;51.796;5.808;2022-07-19T09:24:49;8.00;;;2.72;;
25263;SDS011;13211;51.796;5.808;2022-07-19T09:27:18;8.02;;;2.42;;
25263;SDS011;13211;51.796;5.808;2022-07-19T09:29:52;20.45;;;3.45;;
25263;SDS011;13211;51.796;5.808;2022-07-19T09:32:22;11.90;;;2.58;;
25263;SDS011;13211;51.796;5.808;2022-07-19T09:34:55;20.58;;;2.70;;
25263;SDS011;13211;51.796;5.808;2022-07-19T09:37:25;8.00;;;2.38;;
25263;SDS011;13211;51.796;5.808;2022-07-19T09:39:56;9.00;;;2.78;;
25263;SDS011;13211;51.796;5.808;2022-07-19T09:42:39;8.30;;;2.58;;
25263;SDS011;13211;51.796;5.808;2022-07-19T09:45:12;16.50;;;2.35;;
25263;SDS011;13211;51.796;5.808;2022-07-19T09:47:44;14.45;;;2.55;;
25263;SDS011;13211;51.796;5.808;2022-07-19T09:50:16;6.00;;;2.42;;
25263;SDS011;13211;51.796;5.808;2022-07-19T09:52:46;8.10;;;2.70;;
25263;SDS011;13211;51.796;5.808;2022-07-19T09:55:15;4.55;;;1.92;;
25263;SDS011;13211;51.796;5.808;2022-07-19T09:57:44;7.03;;;2.40;;
25263;SDS011;13211;51.796;5.808;2022-07-19T10:02:43;12.93;;;2.85;;
25263;SDS011;13211;51.796;5.808;2022-07-19T10:05:17;8.05;;;2.42;;
25263;SDS011;13211;51.796;5.808;2022-07-19T10:07:45;10.45;;;2.53;;
25263;SDS011;13211;51.796;5.808;2022-07-19T10:10:15;10.00;;;2.30;;
25263;SDS011;13211;51.796;5.808;2022-07-19T10:12:45;9.55;;;2.35;;
25263;SDS011;13211;51.796;5.808;2022-07-19T10:15:15;19.00;;;2.50;;
25263;SDS011;13211;51.796;5.808;2022-07-19T10:17:48;11.20;;;2.50;;
25263;SDS011;13211;51.796;5.808;2022-07-19T10:20:25;10.02;;;2.40;;
25263;SDS011;13211;51.796;5.808;2022-07-19T10:23:01;7.78;;;2.78;;
25263;SDS011;13211;51.796;5.808;2022-07-19T10:31:33;4.10;;;2.20;;
25263;SDS011;13211;51.796;5.808;2022-07-19T10:34:03;11.85;;;2.40;;
25263;SDS011;13211;51.796;5.808;2022-07-19T10:39:47;10.43;;;2.30;;
25263;SDS011;13211;51.796;5.808;2022-07-19T10:42:22;14.15;;;2.30;;
25263;SDS011;13211;51.796;5.808;2022-07-19T10:50:08;6.35;;;2.22;;
25263;SDS011;13211;51.796;5.808;2022-07-19T10:52:43;6.60;;;1.73;;
25263;SDS011;13211;51.796;5.808;2022-07-19T11:00:42;5.03;;;1.75;;
25263;SDS011;13211;51.796;5.808;2022-07-19T11:06:01;14.63;;;2.97;;
25263;SDS011;13211;51.796;5.808;2022-07-19T11:08:31;11.10;;;2.10;;
25263;SDS011;13211;51.796;5.808;2022-07-19T11:11:08;9.07;;;2.35;;
25263;SDS011;13211;51.796;5.808;2022-07-19T11:13:38;12.98;;;2.08;;
25263;SDS011;13211;51.796;5.808;2022-07-19T11:16:10;8.05;;;2.10;;
25263;SDS011;13211;51.796;5.808;2022-07-19T11:18:39;11.20;;;2.20;;
25263;SDS011;13211;51.796;5.808;2022-07-19T11:23:39;11.45;;;2.03;;
25263;SDS011;13211;51.796;5.808;2022-07-19T11:26:16;11.80;;;1.80;;
25263;SDS011;13211;51.796;5.808;2022-07-19T11:28:47;7.60;;;1.90;;
25263;SDS011;13211;51.796;5.808;2022-07-19T11:31:22;5.93;;;2.40;;
25263;SDS011;13211;51.796;5.808;2022-07-19T11:33:52;14.88;;;2.22;;
25263;SDS011;13211;51.796;5.808;2022-07-19T11:36:26;11.43;;;2.00;;
25263;SDS011;13211;51.796;5.808;2022-07-19T11:38:56;10.88;;;2.15;;
25263;SDS011;13211;51.796;5.808;2022-07-19T11:41:28;7.80;;;2.70;;
25263;SDS011;13211;51.796;5.808;2022-07-19T11:44:00;8.55;;;2.10;;
25263;SDS011;13211;51.796;5.808;2022-07-19T11:46:31;12.20;;;2.30;;
25263;SDS011;13211;51.796;5.808;2022-07-19T11:49:05;16.92;;;2.38;;
25263;SDS011;13211;51.796;5.808;2022-07-19T11:51:34;4.55;;;2.00;;
25263;SDS011;13211;51.796;5.808;2022-07-19T11:54:03;9.43;;;2.38;;
25263;SDS011;13211;51.796;5.808;2022-07-19T11:56:33;6.78;;;2.13;;
25263;SDS011;13211;51.796;5.808;2022-07-19T11:59:03;7.43;;;2.08;;
25263;SDS011;13211;51.796;5.808;2022-07-19T12:01:33;8.65;;;2.20;;
25263;SDS011;13211;51.796;5.808;2022-07-19T12:04:04;8.63;;;2.30;;
25263;SDS011;13211;51.796;5.808;2022-07-19T12:06:40;7.43;;;2.53;;
25263;SDS011;13211;51.796;5.808;2022-07-19T12:09:13;10.02;;;2.65;;
25263;SDS011;13211;51.796;5.808;2022-07-19T12:11:47;12.30;;;2.65;;
25263;SDS011;13211;51.796;5.808;2022-07-19T12:16:48;13.20;;;2.33;;
25263;SDS011;13211;51.796;5.808;2022-07-19T12:19:40;5.22;;;2.10;;
25263;SDS011;13211;51.796;5.808;2022-07-19T12:25:07;9.57;;;2.22;;
25263;SDS011;13211;51.796;5.808;2022-07-19T12:27:36;12.52;;;2.00;;
25263;SDS011;13211;51.796;5.808;2022-07-19T12:30:04;11.87;;;2.83;;
25263;SDS011;13211;51.796;5.808;2022-07-19T12:32:39;3.97;;;2.20;;
25263;SDS011;13211;51.796;5.808;2022-07-19T12:35:14;8.15;;;2.60;;
25263;SDS011;13211;51.796;5.808;2022-07-19T12:37:49;10.68;;;2.05;;
25263;SDS011;13211;51.796;5.808;2022-07-19T12:40:25;8.48;;;2.20;;
25263;SDS011;13211;51.796;5.808;2022-07-19T12:42:54;10.37;;;2.70;;
25263;SDS011;13211;51.796;5.808;2022-07-19T12:45:30;11.95;;;2.30;;
25263;SDS011;13211;51.796;5.808;2022-07-19T12:48:00;4.68;;;2.08;;
25263;SDS011;13211;51.796;5.808;2022-07-19T12:50:30;8.45;;;2.10;;
25263;SDS011;13211;51.796;5.808;2022-07-19T12:53:03;7.13;;;1.75;;
25263;SDS011;13211;51.796;5.808;2022-07-19T12:55:32;4.20;;;2.10;;
25263;SDS011;13211;51.796;5.808;2022-07-19T12:58:02;15.70;;;2.50;;
25263;SDS011;13211;51.796;5.808;2022-07-19T13:00:32;4.78;;;1.73;;
25263;SDS011;13211;51.796;5.808;2022-07-19T13:03:01;8.98;;;2.03;;
25263;SDS011;13211;51.796;5.808;2022-07-19T13:05:30;12.13;;;2.38;;
25263;SDS011;13211;51.796;5.808;2022-07-19T13:07:58;5.47;;;1.60;;
25263;SDS011;13211;51.796;5.808;2022-07-19T13:10:27;6.68;;;2.00;;
25263;SDS011;13211;51.796;5.808;2022-07-19T13:12:56;2.25;;;1.50;;
25263;SDS011;13211;51.796;5.808;2022-07-19T13:15:24;9.60;;;1.67;;
25263;SDS011;13211;51.796;5.808;2022-07-19T13:17:52;8.07;;;1.40;;
25263;SDS011;13211;51.796;5.808;2022-07-19T13:20:27;6.78;;;1.80;;
25263;SDS011;13211;51.796;5.808;2022-07-19T13:22:55;2.80;;;1.77;;
25263;SDS011;13211;51.796;5.808;2022-07-19T13:25:23;5.70;;;1.55;;
25263;SDS011;13211;51.796;5.808;2022-07-19T13:28:08;5.88;;;2.05;;
25263;SDS011;13211;51.796;5.808;2022-07-19T13:30:36;10.18;;;1.52;;
25263;SDS011;13211;51.796;5.808;2022-07-19T13:33:04;5.68;;;1.70;;
25263;SDS011;13211;51.796;5.808;2022-07-19T13:35:32;4.72;;;1.73;;
25263;SDS011;13211;51.796;5.808;2022-07-19T13:38:01;3.80;;;1.60;;
25263;SDS011;13211;51.796;5.808;2022-07-19T13:40:29;7.10;;;1.80;;
25263;SDS011;13211;51.796;5.808;2022-07-19T13:42:56;6.72;;;1.55;;
25263;SDS011;13211;51.796;5.808;2022-07-19T13:45:27;6.35;;;1.88;;
25263;SDS011;13211;51.796;5.808;2022-07-19T13:47:54;7.05;;;2.00;;
25263;SDS011;13211;51.796;5.808;2022-07-19T13:50:27;10.70;;;1.85;;
25263;SDS011;13211;51.796;5.808;2022-07-19T13:52:56;4.50;;;1.60;;
25263;SDS011;13211;51.796;5.808;2022-07-19T13:55:24;5.88;;;1.90;;
25263;SDS011;13211;51.796;5.808;2022-07-19T13:57:53;11.95;;;1.60;;
25263;SDS011;13211;51.796;5.808;2022-07-19T14:00:23;5.88;;;1.90;;
25263;SDS011;13211;51.796;5.808;2022-07-19T14:02:54;7.43;;;2.00;;
25263;SDS011;13211;51.796;5.808;2022-07-19T14:05:23;6.82;;;1.70;;
25263;SDS011;13211;51.796;5.808;2022-07-19T14:07:50;4.78;;;1.70;;
25263;SDS011;13211;51.796;5.808;2022-07-19T14:10:18;5.47;;;1.73;;
25263;SDS011;13211;51.796;5.808;2022-07-19T14:12:46;4.18;;;1.73;;
25263;SDS011;13211;51.796;5.808;2022-07-19T14:15:34;6.00;;;1.90;;
25263;SDS011;13211;51.796;5.808;2022-07-19T14:18:02;7.00;;;1.75;;
25263;SDS011;13211;51.796;5.808;2022-07-19T14:20:30;6.13;;;1.90;;
25263;SDS011;13211;51.796;5.808;2022-07-19T14:22:57;5.90;;;1.95;;
25263;SDS011;13211;51.796;5.808;2022-07-19T14:25:25;9.00;;;2.05;;
25263;SDS011;13211;51.796;5.808;2022-07-19T14:27:52;8.23;;;1.92;;
25263;SDS011;13211;51.796;5.808;2022-07-19T14:30:20;4.28;;;1.75;;
25263;SDS011;13211;51.796;5.808;2022-07-19T14:32:47;4.55;;;1.58;;
25263;SDS011;13211;51.796;5.808;2022-07-19T14:35:15;7.82;;;1.83;;
25263;SDS011;13211;51.796;5.808;2022-07-19T14:37:43;7.10;;;1.48;;
25263;SDS011;13211;51.796;5.808;2022-07-19T14:40:12;9.50;;;2.10;;
25263;SDS011;13211;51.796;5.808;2022-07-19T14:42:40;8.60;;;1.95;;
25263;SDS011;13211;51.796;5.808;2022-07-19T14:45:10;8.45;;;1.75;;
25263;SDS011;13211;51.796;5.808;2022-07-19T14:47:39;3.33;;;1.67;;
25263;SDS011;13211;51.796;5.808;2022-07-19T14:50:10;5.55;;;1.85;;
25263;SDS011;13211;51.796;5.808;2022-07-19T14:52:39;11.40;;;2.15;;
25263;SDS011;13211;51.796;5.808;2022-07-19T14:55:08;10.43;;;1.73;;
25263;SDS011;13211;51.796;5.808;2022-07-19T14:57:37;6.70;;;1.80;;
25263;SDS011;13211;51.796;5.808;2022-07-19T15:00:08;4.60;;;1.85;;
25263;SDS011;13211;51.796;5.808;2022-07-19T15:02:39;10.02;;;2.03;;
25263;SDS011;13211;51.796;5.808;2022-07-19T15:05:10;5.85;;;1.80;;
25263;SDS011;13211;51.796;5.808;2022-07-19T15:07:37;4.07;;;1.70;;
25263;SDS011;13211;51.796;5.808;2022-07-19T15:10:05;8.32;;;1.98;;
25263;SDS011;13211;51.796;5.808;2022-07-19T15:15:02;10.60;;;1.80;;
25263;SDS011;13211;51.796;5.808;2022-07-19T15:17:29;10.43;;;1.85;;
25263;SDS011;13211;51.796;5.808;2022-07-19T15:19:57;5.07;;;1.90;;
25263;SDS011;13211;51.796;5.808;2022-07-19T15:22:27;7.03;;;1.85;;
25263;SDS011;13211;51.796;5.808;2022-07-19T15:24:55;8.55;;;2.22;;
25263;SDS011;13211;51.796;5.808;2022-07-19T15:27:23;8.93;;;2.08;;
25263;SDS011;13211;51.796;5.808;2022-07-19T15:29:51;16.98;;;1.98;;
25263;SDS011;13211;51.796;5.808;2022-07-19T15:32:27;8.02;;;1.80;;
25263;SDS011;13211;51.796;5.808;2022-07-19T15:34:56;8.50;;;1.97;;